createdAt,value
2023-01-13T05:18:26.708Z,99299.53
2023-01-13T05:20:53.315Z,99297.72
2023-01-13T05:23:38.491Z,99309.13
2023-01-13T05:26:05.581Z,99301.47
2023-01-13T05:28:34.368Z,99298.97
2023-01-13T05:31:01.621Z,99303.25
2023-01-13T05:34:20.502Z,99300.56
2023-01-13T05:36:47.159Z,99300.06
2023-01-13T05:39:17.879Z,99305.28
2023-01-13T05:42:32.231Z,99326.56
2023-01-13T05:44:58.767Z,99329.06
2023-01-13T05:47:25.197Z,99330.69
2023-01-13T05:49:51.631Z,99342.78
2023-01-13T05:55:12.527Z,99357.50
2023-01-13T05:57:44.895Z,99338.16
2023-01-13T06:00:12.825Z,99333.28
2023-01-13T06:02:39.267Z,99338.25
2023-01-13T06:05:05.923Z,99331.44
2023-01-13T06:07:32.446Z,99327.59
2023-01-13T06:09:59.018Z,99325.94
2023-01-13T06:12:29.696Z,99332.94
2023-01-13T06:15:03.470Z,99325.69
2023-01-13T06:17:29.982Z,99332.63
2023-01-13T06:19:56.461Z,99339.50
2023-01-13T06:22:30.819Z,99350.09
2023-01-13T06:24:57.386Z,99347.56
2023-01-13T06:27:24.789Z,99368.78
2023-01-13T06:29:51.530Z,99373.78
2023-01-13T06:32:27.351Z,99368.72
2023-01-13T06:34:59.621Z,99360.16
2023-01-13T06:37:27.980Z,99355.56
2023-01-13T06:39:58.563Z,99330.16
2023-01-13T06:42:47.190Z,99338.88
2023-01-13T06:45:13.952Z,99315.19
2023-01-13T06:47:40.940Z,99297.53
2023-01-13T06:50:07.927Z,99307.59
2023-01-13T06:52:34.474Z,99330.19
2023-01-13T06:55:02.913Z,99352.28
2023-01-13T06:57:29.570Z,99353.91
2023-01-13T06:59:56.108Z,99352.41
2023-01-13T07:02:22.812Z,99347.47
2023-01-13T07:04:49.288Z,99337.41
2023-01-13T07:07:16.893Z,99344.19
2023-01-13T07:09:44.468Z,99352.91
2023-01-13T07:12:14.138Z,99356.53
2023-01-13T07:19:04.689Z,99377.88
2023-01-13T07:21:31.355Z,99368.72
2023-01-13T07:24:05.547Z,99369.44
2023-01-13T07:26:34.430Z,99386.72
2023-01-13T07:29:04.781Z,99379.41
2023-01-13T07:31:31.929Z,99371.69
2023-01-13T07:34:06.634Z,99365.75
2023-01-13T07:36:33.472Z,99365.31
2023-01-13T07:39:30.773Z,99384.38
2023-01-13T07:42:18.195Z,99392.81
2023-01-13T07:44:44.744Z,99401.22
2023-01-13T07:47:12.492Z,99406.78
2023-01-13T07:49:39.055Z,99408.19
2023-01-13T07:52:05.625Z,99417.09
2023-01-13T07:54:40.570Z,99412.91
2023-01-13T07:57:09.773Z,99416.63
2023-01-13T07:59:36.874Z,99414.53
2023-01-13T08:02:03.642Z,99410.63
2023-01-13T08:04:56.963Z,99423.41
2023-01-13T08:07:23.520Z,99424.34
2023-01-13T08:09:50.284Z,99425.75
2023-01-13T08:12:41.464Z,99425.63
2023-01-13T08:15:20.089Z,99431.44
2023-01-13T08:17:47.647Z,99426.59
2023-01-13T08:20:14.134Z,99433.59
2023-01-13T08:22:40.607Z,99435.09
2023-01-13T08:25:07.517Z,99436.06
2023-01-13T08:27:34.220Z,99444.66
2023-01-13T08:30:00.772Z,99444.31
2023-01-13T08:32:27.307Z,99444.50
2023-01-13T08:34:54.825Z,99446.06
2023-01-13T08:37:21.384Z,99456.78
2023-01-13T08:39:47.945Z,99447.31
2023-01-13T08:42:14.428Z,99451.97
2023-01-13T08:44:40.955Z,99453.75
2023-01-13T08:47:11.035Z,99453.88
2023-01-13T08:49:37.649Z,99454.59
2023-01-13T08:52:04.704Z,99468.41
2023-01-13T08:54:31.221Z,99462.47
2023-01-13T08:56:58.842Z,99464.47
2023-01-13T08:59:25.488Z,99467.34
2023-01-13T09:01:52.461Z,99464.03
2023-01-13T09:04:21.789Z,99475.88
2023-01-13T09:06:49.240Z,99479.78
2023-01-13T09:09:18.228Z,99476.34
2023-01-13T09:12:09.268Z,99472.44
2023-01-13T09:14:43.154Z,99472.00
2023-01-13T09:25:18.967Z,99503.06
2023-01-13T09:27:45.424Z,99498.88
2023-01-13T09:30:12.617Z,99506.31
2023-01-13T09:32:39.329Z,99513.19
2023-01-13T09:35:07.633Z,99508.75
2023-01-13T09:37:38.381Z,99517.03
2023-01-13T09:40:16.658Z,99507.94
2023-01-13T09:43:48.054Z,99514.16
2023-01-13T09:46:38.646Z,99525.88
2023-01-13T09:49:05.412Z,99525.25
2023-01-13T09:51:42.262Z,99524.38
2023-01-13T09:54:21.054Z,99526.38
2023-01-13T09:56:47.640Z,99547.66
2023-01-13T09:59:16.179Z,99545.44
2023-01-13T10:01:54.733Z,99536.13
2023-01-13T10:04:21.515Z,99530.38
2023-01-13T10:06:52.282Z,99529.22
2023-01-13T10:09:51.180Z,99519.84
2023-01-13T10:12:49.291Z,99526.41
2023-01-13T10:15:17.953Z,99525.22
2023-01-13T10:18:10.724Z,99528.34
2023-01-13T10:20:45.892Z,99523.03
2023-01-13T10:23:15.436Z,99509.81
2023-01-13T10:25:58.732Z,99514.13
2023-01-13T10:28:26.419Z,99513.53
2023-01-13T10:30:53.004Z,99515.59
2023-01-13T10:33:28.250Z,99517.47
2023-01-13T10:36:03.484Z,99514.22
2023-01-13T10:38:37.669Z,99522.09
2023-01-13T10:41:11.758Z,99528.78
2023-01-13T10:43:38.314Z,99521.22
2023-01-13T10:46:10.549Z,99525.00
2023-01-13T10:48:38.655Z,99525.09
2023-01-13T10:51:14.259Z,99534.63
2023-01-13T10:53:55.459Z,99533.97
2023-01-13T10:56:24.565Z,99522.38
2023-01-13T10:58:51.352Z,99533.50
2023-01-13T11:01:26.769Z,99530.16
2023-01-13T11:03:56.880Z,99524.34
2023-01-13T11:06:29.959Z,99547.94
2023-01-13T11:08:58.463Z,99513.44
2023-01-13T11:11:24.845Z,99525.63
2023-01-13T11:14:13.535Z,99515.09
2023-01-13T11:16:53.005Z,99534.69
2023-01-13T11:19:23.280Z,99541.47
2023-01-13T11:22:12.697Z,99547.25
2023-01-13T11:24:45.843Z,99548.13
2023-01-13T11:27:37.425Z,99535.03
2023-01-13T11:30:26.225Z,99532.97
2023-01-13T11:33:15.537Z,99533.25
2023-01-13T11:35:47.369Z,99526.97
2023-01-13T11:38:40.156Z,99524.19
2023-01-13T11:41:21.378Z,99522.44
2023-01-13T11:44:02.908Z,99527.56
2023-01-13T11:46:29.524Z,99522.06
2023-01-13T11:48:56.720Z,99541.94
2023-01-13T11:51:34.623Z,99544.09
2023-01-13T11:54:35.207Z,99555.16
2023-01-13T11:57:45.875Z,99550.97
2023-01-13T12:00:30.826Z,99543.13
2023-01-13T12:03:21.086Z,99558.19
2023-01-13T12:05:59.601Z,99559.16
2023-01-13T12:08:41.408Z,99553.91
2023-01-13T12:11:21.546Z,99552.00
2023-01-13T12:14:28.672Z,99557.09
2023-01-13T12:17:20.008Z,99560.84
2023-01-13T12:19:50.035Z,99563.03
2023-01-13T12:22:25.736Z,99563.94
2023-01-13T12:25:05.856Z,99550.94
2023-01-13T12:27:51.675Z,99548.13
2023-01-13T12:30:18.339Z,99538.56
2023-01-13T12:32:46.032Z,99522.69
2023-01-13T12:35:45.926Z,99524.13
2023-01-13T12:38:34.330Z,99530.47
2023-01-13T12:41:16.740Z,99516.28
2023-01-13T12:44:06.697Z,99529.06
2023-01-13T12:46:35.255Z,99517.19
2023-01-13T12:49:01.625Z,99536.38
2023-01-13T12:51:33.249Z,99543.38
2023-01-13T12:54:05.391Z,99525.38
2023-01-13T12:56:45.275Z,99538.19
2023-01-13T12:59:21.325Z,99531.53
2023-01-13T13:01:50.294Z,99541.41
2023-01-13T13:04:41.004Z,99527.03
2023-01-13T13:07:14.431Z,99528.75
2023-01-13T13:09:52.859Z,99543.44
2023-01-13T13:12:50.250Z,99540.09
2023-01-13T13:15:25.455Z,99544.94
2023-01-13T13:18:16.746Z,99553.16
2023-01-13T13:21:03.607Z,99562.13
2023-01-13T13:23:37.622Z,99571.81
2023-01-13T13:26:26.262Z,99569.47
2023-01-13T13:29:28.618Z,99591.88
2023-01-13T13:32:56.204Z,99587.13
2023-01-13T13:36:02.662Z,99597.97
2023-01-13T13:39:25.495Z,99612.00
2023-01-13T13:42:20.969Z,99592.19
2023-01-13T13:45:07.721Z,99584.63
2023-01-13T13:47:40.513Z,99590.69
2023-01-13T13:50:30.179Z,99574.75
2023-01-13T13:53:05.221Z,99583.88
2023-01-13T13:55:32.495Z,99589.84
2023-01-13T13:58:01.412Z,99586.81
2023-01-13T14:00:38.031Z,99595.78
2023-01-13T14:03:18.465Z,99587.31
2023-01-13T14:05:55.939Z,99590.16
2023-01-13T14:08:23.344Z,99595.44
2023-01-13T14:10:51.191Z,99603.47
2023-01-13T14:13:27.652Z,99590.16
2023-01-13T14:15:58.748Z,99615.22
2023-01-13T14:18:31.887Z,99617.47
2023-01-13T14:21:40.365Z,99613.69
2023-01-13T14:24:17.663Z,99618.56
2023-01-13T14:26:44.378Z,99611.88
2023-01-13T14:29:18.394Z,99615.19
2023-01-13T14:31:45.063Z,99614.44
2023-01-13T14:34:31.279Z,99616.53
2023-01-13T14:37:00.505Z,99617.88
2023-01-13T14:39:34.347Z,99618.41
2023-01-13T14:42:56.518Z,99618.63
2023-01-13T14:45:24.587Z,99621.94
2023-01-13T14:47:54.032Z,99628.47
2023-01-13T14:50:28.034Z,99637.44
2023-01-13T14:52:56.799Z,99627.47
2023-01-13T14:55:41.233Z,99631.19
2023-01-13T14:58:37.256Z,99638.47
2023-01-13T15:01:35.017Z,99625.59
2023-01-13T15:04:38.276Z,99627.31
2023-01-13T15:07:05.403Z,99625.91
2023-01-13T15:09:40.807Z,99630.00
2023-01-13T15:12:39.325Z,99653.22
2023-01-13T15:15:19.877Z,99655.59
2023-01-13T15:17:46.854Z,99665.53
2023-01-13T15:20:17.317Z,99676.97
2023-01-13T15:22:43.790Z,99673.38
2023-01-13T15:25:10.562Z,99668.22
2023-01-13T15:27:38.479Z,99667.19
2023-01-13T15:30:26.715Z,99677.44
2023-01-13T15:32:55.093Z,99681.75
2023-01-13T15:35:23.299Z,99690.88
2023-01-13T15:37:50.530Z,99707.00
2023-01-13T15:40:25.728Z,99709.09
2023-01-13T15:43:10.799Z,99711.44
2023-01-13T15:45:56.535Z,99721.63
2023-01-13T15:48:32.035Z,99732.81
2023-01-13T15:50:59.625Z,99723.97
2023-01-13T15:53:27.350Z,99724.81
2023-01-13T15:55:57.662Z,99730.25
2023-01-13T15:58:28.278Z,99733.28
2023-01-13T16:00:55.458Z,99737.41
2023-01-13T16:03:22.190Z,99739.16
2023-01-13T16:05:49.229Z,99732.97
2023-01-13T16:08:18.305Z,99742.09
2023-01-13T16:10:45.451Z,99749.97
2023-01-13T16:13:17.094Z,99753.75
2023-01-13T16:15:46.999Z,99767.84
2023-01-13T16:18:19.258Z,99756.94
2023-01-13T16:45:24.484Z,99819.88
2023-01-13T16:47:51.217Z,99827.56
2023-01-13T16:50:28.429Z,99829.38
2023-01-13T16:52:55.332Z,99834.47
2023-01-13T16:58:33.535Z,99831.78
2023-01-13T17:01:00.091Z,99830.91
2023-01-13T17:03:26.602Z,99839.78
2023-01-13T17:05:53.133Z,99836.47
2023-01-13T17:08:21.422Z,99842.78
2023-01-13T17:10:50.543Z,99843.13
2023-01-13T17:13:18.196Z,99837.88
2023-01-13T17:15:45.995Z,99845.91
2023-01-13T17:18:13.760Z,99857.53
2023-01-13T17:20:42.111Z,99857.41
2023-01-13T17:23:09.646Z,99863.06
2023-01-13T17:25:36.993Z,99855.91
2023-01-13T17:28:04.118Z,99866.19
2023-01-13T17:38:53.206Z,99869.13
2023-01-13T17:41:19.721Z,99880.72
2023-01-13T17:43:46.976Z,99886.03
2023-01-13T17:46:19.284Z,99890.50
2023-01-13T17:48:47.150Z,99892.44
2023-01-13T17:51:16.924Z,99910.56
2023-01-13T17:53:46.291Z,99898.88
2023-01-13T17:56:15.680Z,99906.75
2023-01-13T17:58:43.164Z,99924.53
2023-01-13T18:01:16.331Z,99901.25
2023-01-13T18:03:44.381Z,99914.16
2023-01-13T18:06:19.611Z,99911.38
2023-01-13T18:08:48.240Z,99930.84
2023-01-13T18:11:18.805Z,99929.25
2023-01-13T18:13:49.612Z,99937.13
2023-01-13T18:16:18.611Z,99920.22
2023-01-13T18:18:47.027Z,99920.81
2023-01-13T18:21:41.534Z,99920.81
2023-01-13T18:24:34.659Z,99934.72
2023-01-13T18:27:22.507Z,99923.25
2023-01-13T18:29:51.898Z,99930.56
2023-01-13T18:32:19.068Z,99944.56
2023-01-13T18:34:46.037Z,99944.75
2023-01-13T18:37:15.064Z,99948.09
2023-01-13T18:39:42.538Z,99950.13
2023-01-13T18:42:29.424Z,99940.94
2023-01-13T18:44:57.918Z,99941.94
2023-01-13T18:47:26.001Z,99948.91
2023-01-13T18:49:53.541Z,99962.25
2023-01-13T18:52:20.791Z,99964.81
2023-01-13T18:54:47.723Z,99971.72
2023-01-13T18:57:16.428Z,99981.63
2023-01-13T18:59:44.188Z,99989.44
2023-01-13T19:02:19.081Z,100000.91
2023-01-13T19:04:46.734Z,100000.88
2023-01-13T19:07:16.863Z,99998.91
2023-01-13T19:09:43.651Z,99994.28
2023-01-13T19:12:12.048Z,100011.56
2023-01-13T19:14:40.628Z,99997.84
2023-01-13T19:17:13.457Z,99999.47
2023-01-13T19:19:43.982Z,100012.88
2023-01-13T19:22:12.969Z,100018.63
2023-01-13T19:24:44.447Z,100035.19
2023-01-13T19:27:14.864Z,100028.22
2023-01-13T19:29:52.014Z,100043.28
2023-01-13T19:32:21.020Z,100042.25
2023-01-13T19:34:51.377Z,100040.94
2023-01-13T19:37:19.488Z,100046.16
2023-01-13T19:39:46.298Z,100052.75
2023-01-13T19:42:32.094Z,100042.78
2023-01-13T19:46:00.579Z,100053.19
2023-01-13T19:48:30.622Z,100047.19
2023-01-13T19:50:59.231Z,100059.44
2023-01-13T19:53:27.283Z,100058.72
2023-01-13T19:55:55.129Z,100054.84
2023-01-13T19:58:26.010Z,100063.97
2023-01-13T20:00:56.641Z,100046.66
2023-01-13T20:03:43.795Z,100066.59
2023-01-13T20:06:18.468Z,100061.56
2023-01-13T20:08:58.146Z,100067.31
2023-01-13T20:14:57.237Z,100079.78
2023-01-13T20:17:42.861Z,100077.28
2023-01-13T20:20:37.162Z,100085.97
2023-01-13T20:23:09.366Z,100086.66
2023-01-13T20:25:44.118Z,100095.94
2023-01-13T20:28:26.518Z,100107.59
2023-01-13T20:30:58.924Z,100117.47
2023-01-13T20:34:20.334Z,100116.31
2023-01-13T20:36:53.239Z,100124.34
2023-01-13T20:39:50.345Z,100128.59
2023-01-13T20:42:31.440Z,100134.47
2023-01-13T20:45:15.129Z,100129.06
2023-01-13T20:47:44.012Z,100131.91
2023-01-13T20:50:25.595Z,100139.25
2023-01-13T20:52:55.047Z,100142.44
2023-01-13T20:55:38.009Z,100141.31
2023-01-13T20:58:07.732Z,100147.44
2023-01-13T21:00:34.317Z,100145.28
2023-01-13T21:03:00.869Z,100154.69
2023-01-13T21:05:28.288Z,100162.13
2023-01-13T21:07:54.763Z,100162.38
2023-01-13T21:10:21.256Z,100161.34
2023-01-13T21:13:06.479Z,100168.06
2023-01-13T21:15:32.982Z,100173.94
2023-01-13T21:18:18.190Z,100174.63
2023-01-13T21:20:44.706Z,100173.81
2023-01-13T21:23:11.268Z,100177.34
2023-01-13T21:25:39.632Z,100179.03
2023-01-13T21:28:06.718Z,100175.81
2023-01-13T21:30:33.732Z,100178.56
2023-01-13T21:33:00.812Z,100186.97
2023-01-13T21:35:27.728Z,100186.03
2023-01-13T21:37:54.295Z,100194.84
2023-01-13T21:40:21.166Z,100191.63
2023-01-13T21:43:06.339Z,100201.66
2023-01-13T21:45:51.522Z,100207.81
2023-01-13T21:48:17.998Z,100212.69
2023-01-13T21:50:45.277Z,100216.13
2023-01-13T21:53:11.858Z,100225.81
2023-01-13T21:55:38.329Z,100223.22
2023-01-13T21:58:10.751Z,100229.66
2023-01-13T22:00:38.683Z,100230.56
2023-01-13T22:03:07.196Z,100236.19
2023-01-13T22:05:34.101Z,100234.84
2023-01-13T22:08:00.679Z,100234.16
2023-01-13T22:10:30.498Z,100235.09
2023-01-13T22:13:00.623Z,100236.78
2023-01-13T22:15:31.320Z,100236.81
2023-01-13T22:17:59.454Z,100249.81
2023-01-13T22:20:26.719Z,100240.41
2023-01-13T22:22:56.521Z,100246.22
2023-01-13T22:25:24.081Z,100262.50
2023-01-13T22:28:06.201Z,100255.16
2023-01-13T22:30:36.431Z,100255.09
2023-01-13T22:33:17.115Z,100255.06
2023-01-13T22:36:29.906Z,100257.09
2023-01-13T22:39:17.022Z,100265.88
2023-01-13T22:41:43.538Z,100267.38
2023-01-13T22:44:10.026Z,100270.63
2023-01-13T22:46:36.728Z,100274.91
2023-01-13T22:49:03.595Z,100283.03
2023-01-13T22:51:30.557Z,100291.16
2023-01-13T22:53:57.045Z,100299.28
2023-01-13T22:56:25.527Z,100288.94
2023-01-13T22:58:56.728Z,100272.47
